sensor_id;sensor_type;location;lat;lon;timestamp;P1;durP1;ratioP1;P2;durP2;ratioP2
27303;SDS011;14791;52.392;13.092;2022-09-12T00:01:34;1.25;;;1.25;;
27303;SDS011;14791;52.392;13.092;2022-09-12T00:04:02;1.37;;;1.37;;
27303;SDS011;14791;52.392;13.092;2022-09-12T00:06:33;1.42;;;1.42;;
27303;SDS011;14791;52.392;13.092;2022-09-12T00:09:05;1.40;;;1.40;;
27303;SDS011;14791;52.392;13.092;2022-09-12T00:11:36;1.15;;;1.15;;
27303;SDS011;14791;52.392;13.092;2022-09-12T00:14:06;1.07;;;1.07;;
27303;SDS011;14791;52.392;13.092;2022-09-12T00:16:37;1.45;;;1.45;;
27303;SDS011;14791;52.392;13.092;2022-09-12T00:19:07;1.50;;;1.40;;
27303;SDS011;14791;52.392;13.092;2022-09-12T00:21:38;1.75;;;1.52;;
27303;SDS011;14791;52.392;13.092;2022-09-12T00:24:08;1.75;;;1.57;;
27303;SDS011;14791;52.392;13.092;2022-09-12T00:26:38;1.12;;;1.12;;
27303;SDS011;14791;52.392;13.092;2022-09-12T00:29:07;1.40;;;1.40;;
27303;SDS011;14791;52.392;13.092;2022-09-12T00:31:37;1.40;;;1.40;;
27303;SDS011;14791;52.392;13.092;2022-09-12T00:34:06;1.50;;;1.50;;
27303;SDS011;14791;52.392;13.092;2022-09-12T00:36:35;1.60;;;1.50;;
27303;SDS011;14791;52.392;13.092;2022-09-12T00:39:06;1.50;;;1.50;;
27303;SDS011;14791;52.392;13.092;2022-09-12T00:41:36;1.20;;;1.20;;
27303;SDS011;14791;52.392;13.092;2022-09-12T00:49:30;1.52;;;1.27;;
27303;SDS011;14791;52.392;13.092;2022-09-12T00:54:44;1.20;;;1.20;;
27303;SDS011;14791;52.392;13.092;2022-09-12T00:57:42;1.43;;;1.43;;
27303;SDS011;14791;52.392;13.092;2022-09-12T01:00:14;1.40;;;1.40;;
27303;SDS011;14791;52.392;13.092;2022-09-12T01:02:44;1.40;;;1.40;;
27303;SDS011;14791;52.392;13.092;2022-09-12T01:05:15;1.30;;;1.30;;
27303;SDS011;14791;52.392;13.092;2022-09-12T01:07:44;1.85;;;1.75;;
27303;SDS011;14791;52.392;13.092;2022-09-12T01:10:17;1.60;;;1.60;;
27303;SDS011;14791;52.392;13.092;2022-09-12T01:12:46;1.50;;;1.50;;
27303;SDS011;14791;52.392;13.092;2022-09-12T01:15:16;1.87;;;1.77;;
27303;SDS011;14791;52.392;13.092;2022-09-12T01:20:52;1.40;;;1.30;;
27303;SDS011;14791;52.392;13.092;2022-09-12T01:35:18;1.72;;;1.60;;
27303;SDS011;14791;52.392;13.092;2022-09-12T01:40:43;1.27;;;1.27;;
27303;SDS011;14791;52.392;13.092;2022-09-12T01:45:59;1.57;;;1.47;;
27303;SDS011;14791;52.392;13.092;2022-09-12T01:48:35;1.25;;;1.25;;
27303;SDS011;14791;52.392;13.092;2022-09-12T01:51:09;1.75;;;1.75;;
27303;SDS011;14791;52.392;13.092;2022-09-12T01:53:43;1.27;;;1.10;;
27303;SDS011;14791;52.392;13.092;2022-09-12T01:56:18;1.35;;;1.35;;
27303;SDS011;14791;52.392;13.092;2022-09-12T01:58:57;1.25;;;1.25;;
27303;SDS011;14791;52.392;13.092;2022-09-12T02:01:27;1.20;;;1.20;;
27303;SDS011;14791;52.392;13.092;2022-09-12T02:04:14;1.32;;;1.32;;
27303;SDS011;14791;52.392;13.092;2022-09-12T02:06:50;1.40;;;1.40;;
27303;SDS011;14791;52.392;13.092;2022-09-12T02:09:28;1.92;;;1.57;;
27303;SDS011;14791;52.392;13.092;2022-09-12T02:11:56;1.45;;;1.45;;
27303;SDS011;14791;52.392;13.092;2022-09-12T02:14:28;1.40;;;1.40;;
27303;SDS011;14791;52.392;13.092;2022-09-12T02:16:59;1.10;;;1.10;;
27303;SDS011;14791;52.392;13.092;2022-09-12T02:19:40;1.27;;;1.27;;
27303;SDS011;14791;52.392;13.092;2022-09-12T02:22:13;1.10;;;1.10;;
27303;SDS011;14791;52.392;13.092;2022-09-12T02:24:45;1.27;;;1.27;;
27303;SDS011;14791;52.392;13.092;2022-09-12T02:27:20;1.27;;;1.27;;
27303;SDS011;14791;52.392;13.092;2022-09-12T02:29:50;1.37;;;1.25;;
27303;SDS011;14791;52.392;13.092;2022-09-12T02:32:27;1.37;;;1.12;;
27303;SDS011;14791;52.392;13.092;2022-09-12T02:35:06;1.40;;;1.40;;
27303;SDS011;14791;52.392;13.092;2022-09-12T02:40:28;1.17;;;1.17;;
27303;SDS011;14791;52.392;13.092;2022-09-12T02:43:00;1.30;;;1.30;;
27303;SDS011;14791;52.392;13.092;2022-09-12T02:45:31;1.20;;;1.20;;
27303;SDS011;14791;52.392;13.092;2022-09-12T02:48:03;1.20;;;1.20;;
27303;SDS011;14791;52.392;13.092;2022-09-12T02:50:33;1.37;;;1.37;;
27303;SDS011;14791;52.392;13.092;2022-09-12T02:53:02;1.37;;;1.27;;
27303;SDS011;14791;52.392;13.092;2022-09-12T02:55:34;1.20;;;1.20;;
27303;SDS011;14791;52.392;13.092;2022-09-12T02:58:05;1.22;;;1.22;;
27303;SDS011;14791;52.392;13.092;2022-09-12T03:01:21;1.20;;;1.20;;
27303;SDS011;14791;52.392;13.092;2022-09-12T03:03:31;2.45;;;1.40;;
27303;SDS011;14791;52.392;13.092;2022-09-12T03:06:04;1.20;;;1.20;;
27303;SDS011;14791;52.392;13.092;2022-09-12T03:08:55;1.47;;;1.47;;
27303;SDS011;14791;52.392;13.092;2022-09-12T03:11:40;1.30;;;1.30;;
27303;SDS011;14791;52.392;13.092;2022-09-12T03:14:12;1.40;;;1.40;;
27303;SDS011;14791;52.392;13.092;2022-09-12T03:16:45;1.55;;;1.55;;
27303;SDS011;14791;52.392;13.092;2022-09-12T03:19:20;1.60;;;1.60;;
27303;SDS011;14791;52.392;13.092;2022-09-12T03:27:27;0.90;;;0.90;;
27303;SDS011;14791;52.392;13.092;2022-09-12T03:30:09;1.10;;;1.10;;
27303;SDS011;14791;52.392;13.092;2022-09-12T03:32:51;1.10;;;1.10;;
27303;SDS011;14791;52.392;13.092;2022-09-12T03:35:17;1.40;;;1.40;;
27303;SDS011;14791;52.392;13.092;2022-09-12T03:37:48;1.40;;;1.40;;
27303;SDS011;14791;52.392;13.092;2022-09-12T03:40:19;1.37;;;1.37;;
27303;SDS011;14791;52.392;13.092;2022-09-12T03:42:48;1.40;;;1.40;;
27303;SDS011;14791;52.392;13.092;2022-09-12T03:45:16;1.42;;;1.42;;
27303;SDS011;14791;52.392;13.092;2022-09-12T03:47:46;1.60;;;1.60;;
27303;SDS011;14791;52.392;13.092;2022-09-12T03:50:14;1.37;;;1.30;;
27303;SDS011;14791;52.392;13.092;2022-09-12T03:52:43;1.60;;;1.60;;
27303;SDS011;14791;52.392;13.092;2022-09-12T03:55:12;1.40;;;1.40;;
27303;SDS011;14791;52.392;13.092;2022-09-12T03:57:41;1.57;;;1.57;;
27303;SDS011;14791;52.392;13.092;2022-09-12T04:00:10;1.40;;;1.40;;
27303;SDS011;14791;52.392;13.092;2022-09-12T04:02:39;1.85;;;1.80;;
27303;SDS011;14791;52.392;13.092;2022-09-12T04:05:08;1.32;;;1.32;;
27303;SDS011;14791;52.392;13.092;2022-09-12T04:07:37;1.60;;;1.60;;
27303;SDS011;14791;52.392;13.092;2022-09-12T04:10:05;1.50;;;1.47;;
27303;SDS011;14791;52.392;13.092;2022-09-12T04:12:35;1.27;;;1.27;;
27303;SDS011;14791;52.392;13.092;2022-09-12T04:15:05;1.32;;;1.32;;
27303;SDS011;14791;52.392;13.092;2022-09-12T04:17:35;1.50;;;1.50;;
27303;SDS011;14791;52.392;13.092;2022-09-12T04:20:04;1.70;;;1.70;;
27303;SDS011;14791;52.392;13.092;2022-09-12T04:22:34;1.80;;;1.80;;
27303;SDS011;14791;52.392;13.092;2022-09-12T04:25:03;1.73;;;1.73;;
27303;SDS011;14791;52.392;13.092;2022-09-12T04:27:32;1.50;;;1.50;;
27303;SDS011;14791;52.392;13.092;2022-09-12T04:30:01;1.52;;;1.52;;
27303;SDS011;14791;52.392;13.092;2022-09-12T04:32:32;1.80;;;1.67;;
27303;SDS011;14791;52.392;13.092;2022-09-12T04:35:00;1.60;;;1.60;;
27303;SDS011;14791;52.392;13.092;2022-09-12T04:37:29;1.90;;;1.80;;
27303;SDS011;14791;52.392;13.092;2022-09-12T04:39:58;2.15;;;2.05;;
27303;SDS011;14791;52.392;13.092;2022-09-12T04:42:27;1.47;;;1.47;;
27303;SDS011;14791;52.392;13.092;2022-09-12T04:44:57;1.73;;;1.73;;
27303;SDS011;14791;52.392;13.092;2022-09-12T04:47:26;1.60;;;1.60;;
27303;SDS011;14791;52.392;13.092;2022-09-12T04:49:55;3.00;;;2.80;;
27303;SDS011;14791;52.392;13.092;2022-09-12T04:52:24;1.92;;;1.92;;
27303;SDS011;14791;52.392;13.092;2022-09-12T04:54:53;2.07;;;2.07;;
27303;SDS011;14791;52.392;13.092;2022-09-12T04:57:22;2.15;;;2.15;;
27303;SDS011;14791;52.392;13.092;2022-09-12T04:59:51;2.10;;;2.00;;
27303;SDS011;14791;52.392;13.092;2022-09-12T05:02:20;1.55;;;1.55;;
27303;SDS011;14791;52.392;13.092;2022-09-12T05:04:49;1.70;;;1.70;;
27303;SDS011;14791;52.392;13.092;2022-09-12T05:07:18;1.70;;;1.70;;
27303;SDS011;14791;52.392;13.092;2022-09-12T05:09:47;1.98;;;1.90;;
27303;SDS011;14791;52.392;13.092;2022-09-12T05:12:16;2.00;;;2.00;;
27303;SDS011;14791;52.392;13.092;2022-09-12T05:14:45;1.90;;;1.80;;
27303;SDS011;14791;52.392;13.092;2022-09-12T05:17:14;1.87;;;1.87;;
27303;SDS011;14791;52.392;13.092;2022-09-12T05:19:43;2.80;;;2.00;;
27303;SDS011;14791;52.392;13.092;2022-09-12T05:22:12;2.20;;;2.20;;
27303;SDS011;14791;52.392;13.092;2022-09-12T05:24:41;2.17;;;2.17;;
27303;SDS011;14791;52.392;13.092;2022-09-12T05:27:11;1.90;;;1.90;;
27303;SDS011;14791;52.392;13.092;2022-09-12T05:29:39;3.33;;;2.20;;
27303;SDS011;14791;52.392;13.092;2022-09-12T05:32:09;2.37;;;2.37;;
27303;SDS011;14791;52.392;13.092;2022-09-12T05:34:38;2.20;;;2.20;;
27303;SDS011;14791;52.392;13.092;2022-09-12T05:37:07;2.40;;;2.33;;
27303;SDS011;14791;52.392;13.092;2022-09-12T05:39:36;2.30;;;2.20;;
27303;SDS011;14791;52.392;13.092;2022-09-12T05:42:05;2.10;;;2.10;;
27303;SDS011;14791;52.392;13.092;2022-09-12T05:44:35;2.25;;;2.15;;
27303;SDS011;14791;52.392;13.092;2022-09-12T05:47:03;2.65;;;2.50;;
27303;SDS011;14791;52.392;13.092;2022-09-12T05:49:33;2.27;;;2.27;;
27303;SDS011;14791;52.392;13.092;2022-09-12T05:52:03;2.35;;;2.35;;
27303;SDS011;14791;52.392;13.092;2022-09-12T05:54:32;2.37;;;2.37;;
27303;SDS011;14791;52.392;13.092;2022-09-12T05:57:01;2.12;;;2.12;;
27303;SDS011;14791;52.392;13.092;2022-09-12T05:59:29;2.60;;;2.50;;
27303;SDS011;14791;52.392;13.092;2022-09-12T06:01:59;2.62;;;2.52;;
27303;SDS011;14791;52.392;13.092;2022-09-12T06:04:27;2.25;;;2.25;;
27303;SDS011;14791;52.392;13.092;2022-09-12T06:06:56;1.92;;;1.92;;
27303;SDS011;14791;52.392;13.092;2022-09-12T06:09:25;2.40;;;2.30;;
27303;SDS011;14791;52.392;13.092;2022-09-12T06:11:54;2.60;;;2.60;;
27303;SDS011;14791;52.392;13.092;2022-09-12T06:14:23;2.72;;;2.60;;
27303;SDS011;14791;52.392;13.092;2022-09-12T06:16:52;2.47;;;2.37;;
27303;SDS011;14791;52.392;13.092;2022-09-12T06:19:21;2.92;;;2.67;;
27303;SDS011;14791;52.392;13.092;2022-09-12T06:21:51;2.40;;;2.37;;
27303;SDS011;14791;52.392;13.092;2022-09-12T06:24:20;2.60;;;2.50;;
27303;SDS011;14791;52.392;13.092;2022-09-12T06:26:50;2.80;;;2.70;;
27303;SDS011;14791;52.392;13.092;2022-09-12T06:29:19;2.70;;;2.60;;
27303;SDS011;14791;52.392;13.092;2022-09-12T06:31:48;2.83;;;2.72;;
27303;SDS011;14791;52.392;13.092;2022-09-12T06:34:17;2.67;;;2.67;;
27303;SDS011;14791;52.392;13.092;2022-09-12T06:36:46;2.77;;;2.67;;
27303;SDS011;14791;52.392;13.092;2022-09-12T06:39:16;2.25;;;2.25;;
27303;SDS011;14791;52.392;13.092;2022-09-12T06:41:50;2.58;;;2.50;;
27303;SDS011;14791;52.392;13.092;2022-09-12T06:44:21;2.80;;;2.70;;
27303;SDS011;14791;52.392;13.092;2022-09-12T06:46:50;2.85;;;2.70;;
27303;SDS011;14791;52.392;13.092;2022-09-12T06:49:20;2.52;;;2.42;;
27303;SDS011;14791;52.392;13.092;2022-09-12T06:51:48;2.65;;;2.62;;
27303;SDS011;14791;52.392;13.092;2022-09-12T06:54:17;2.60;;;2.50;;
27303;SDS011;14791;52.392;13.092;2022-09-12T06:56:46;1.72;;;1.72;;
27303;SDS011;14791;52.392;13.092;2022-09-12T06:59:15;2.33;;;2.22;;
27303;SDS011;14791;52.392;13.092;2022-09-12T07:01:44;1.50;;;1.50;;
27303;SDS011;14791;52.392;13.092;2022-09-12T07:04:13;1.72;;;1.72;;
27303;SDS011;14791;52.392;13.092;2022-09-12T07:06:42;2.42;;;2.37;;
27303;SDS011;14791;52.392;13.092;2022-09-12T07:09:12;1.60;;;1.60;;
27303;SDS011;14791;52.392;13.092;2022-09-12T07:11:44;1.90;;;1.90;;
27303;SDS011;14791;52.392;13.092;2022-09-12T07:14:14;2.08;;;2.08;;
27303;SDS011;14791;52.392;13.092;2022-09-12T07:16:43;2.05;;;2.05;;
27303;SDS011;14791;52.392;13.092;2022-09-12T07:19:11;2.20;;;2.20;;
27303;SDS011;14791;52.392;13.092;2022-09-12T07:21:40;1.92;;;1.82;;
27303;SDS011;14791;52.392;13.092;2022-09-12T07:24:09;2.35;;;2.22;;
27303;SDS011;14791;52.392;13.092;2022-09-12T07:26:39;1.90;;;1.80;;
27303;SDS011;14791;52.392;13.092;2022-09-12T07:29:19;2.05;;;1.95;;
27303;SDS011;14791;52.392;13.092;2022-09-12T07:31:42;1.77;;;1.77;;
27303;SDS011;14791;52.392;13.092;2022-09-12T07:34:11;1.95;;;1.95;;
27303;SDS011;14791;52.392;13.092;2022-09-12T07:36:40;1.95;;;1.72;;
27303;SDS011;14791;52.392;13.092;2022-09-12T07:39:09;4.72;;;2.90;;
27303;SDS011;14791;52.392;13.092;2022-09-12T07:41:38;2.27;;;2.08;;
27303;SDS011;14791;52.392;13.092;2022-09-12T07:44:07;3.62;;;2.70;;
27303;SDS011;14791;52.392;13.092;2022-09-12T07:46:36;1.95;;;1.85;;
27303;SDS011;14791;52.392;13.092;2022-09-12T07:49:06;1.25;;;1.25;;
27303;SDS011;14791;52.392;13.092;2022-09-12T07:51:35;1.42;;;1.42;;
27303;SDS011;14791;52.392;13.092;2022-09-12T07:54:07;1.10;;;1.10;;
27303;SDS011;14791;52.392;13.092;2022-09-12T07:56:36;1.72;;;1.72;;
27303;SDS011;14791;52.392;13.092;2022-09-12T07:59:05;1.17;;;1.17;;
27303;SDS011;14791;52.392;13.092;2022-09-12T08:01:35;1.27;;;1.27;;
27303;SDS011;14791;52.392;13.092;2022-09-12T08:04:05;1.05;;;1.05;;
27303;SDS011;14791;52.392;13.092;2022-09-12T08:06:35;0.80;;;0.80;;
27303;SDS011;14791;52.392;13.092;2022-09-12T08:09:04;1.35;;;1.35;;
27303;SDS011;14791;52.392;13.092;2022-09-12T08:11:33;1.52;;;1.37;;
27303;SDS011;14791;52.392;13.092;2022-09-12T08:14:03;1.52;;;1.52;;
27303;SDS011;14791;52.392;13.092;2022-09-12T08:16:32;0.90;;;0.90;;
27303;SDS011;14791;52.392;13.092;2022-09-12T08:19:02;1.12;;;1.12;;
27303;SDS011;14791;52.392;13.092;2022-09-12T08:21:32;1.40;;;1.40;;
27303;SDS011;14791;52.392;13.092;2022-09-12T08:24:02;1.75;;;1.42;;
27303;SDS011;14791;52.392;13.092;2022-09-12T08:26:33;1.65;;;1.40;;
27303;SDS011;14791;52.392;13.092;2022-09-12T08:29:02;0.90;;;0.90;;
27303;SDS011;14791;52.392;13.092;2022-09-12T08:31:31;1.10;;;1.10;;
27303;SDS011;14791;52.392;13.092;2022-09-12T08:34:02;2.75;;;1.10;;
27303;SDS011;14791;52.392;13.092;2022-09-12T08:36:32;2.25;;;1.30;;
27303;SDS011;14791;52.392;13.092;2022-09-12T08:39:03;1.00;;;1.00;;
27303;SDS011;14791;52.392;13.092;2022-09-12T08:47:20;1.32;;;1.22;;
27303;SDS011;14791;52.392;13.092;2022-09-12T08:52:38;1.02;;;1.02;;
27303;SDS011;14791;52.392;13.092;2022-09-12T08:55:31;1.20;;;1.20;;
27303;SDS011;14791;52.392;13.092;2022-09-12T08:58:06;0.68;;;0.68;;
27303;SDS011;14791;52.392;13.092;2022-09-12T09:00:47;1.00;;;1.00;;
27303;SDS011;14791;52.392;13.092;2022-09-12T09:03:43;0.82;;;0.82;;
27303;SDS011;14791;52.392;13.092;2022-09-12T09:12:32;0.90;;;0.90;;
27303;SDS011;14791;52.392;13.092;2022-09-12T09:17:48;0.80;;;0.80;;
27303;SDS011;14791;52.392;13.092;2022-09-12T09:23:13;1.50;;;0.80;;
27303;SDS011;14791;52.392;13.092;2022-09-12T09:28:50;0.70;;;0.70;;
27303;SDS011;14791;52.392;13.092;2022-09-12T09:31:28;0.70;;;0.70;;
27303;SDS011;14791;52.392;13.092;2022-09-12T09:33:58;0.70;;;0.70;;
27303;SDS011;14791;52.392;13.092;2022-09-12T09:39:13;0.57;;;0.57;;
27303;SDS011;14791;52.392;13.092;2022-09-12T09:44:31;0.80;;;0.80;;
27303;SDS011;14791;52.392;13.092;2022-09-12T09:47:00;1.00;;;1.00;;
27303;SDS011;14791;52.392;13.092;2022-09-12T09:49:30;0.70;;;0.70;;
27303;SDS011;14791;52.392;13.092;2022-09-12T09:52:02;0.82;;;0.82;;
27303;SDS011;14791;52.392;13.092;2022-09-12T09:54:35;0.72;;;0.72;;
27303;SDS011;14791;52.392;13.092;2022-09-12T10:00:23;0.62;;;0.62;;
27303;SDS011;14791;52.392;13.092;2022-09-12T10:05:34;0.98;;;0.98;;
27303;SDS011;14791;52.392;13.092;2022-09-12T10:08:05;0.80;;;0.80;;
27303;SDS011;14791;52.392;13.092;2022-09-12T10:10:35;0.80;;;0.80;;
27303;SDS011;14791;52.392;13.092;2022-09-12T10:13:22;1.40;;;1.40;;
27303;SDS011;14791;52.392;13.092;2022-09-12T10:15:39;1.17;;;1.17;;
27303;SDS011;14791;52.392;13.092;2022-09-12T10:18:11;0.70;;;0.70;;
27303;SDS011;14791;52.392;13.092;2022-09-12T10:20:43;0.60;;;0.60;;
27303;SDS011;14791;52.392;13.092;2022-09-12T10:23:21;0.78;;;0.78;;
27303;SDS011;14791;52.392;13.092;2022-09-12T10:25:52;0.82;;;0.82;;
27303;SDS011;14791;52.392;13.092;2022-09-12T10:28:29;2.17;;;0.80;;
27303;SDS011;14791;52.392;13.092;2022-09-12T10:31:05;0.90;;;0.90;;
27303;SDS011;14791;52.392;13.092;2022-09-12T10:33:43;1.07;;;1.07;;
27303;SDS011;14791;52.392;13.092;2022-09-12T10:36:15;0.53;;;0.53;;
27303;SDS011;14791;52.392;13.092;2022-09-12T10:38:54;0.70;;;0.70;;
27303;SDS011;14791;52.392;13.092;2022-09-12T10:41:19;0.62;;;0.62;;
27303;SDS011;14791;52.392;13.092;2022-09-12T10:43:49;0.80;;;0.80;;
27303;SDS011;14791;52.392;13.092;2022-09-12T10:51:42;1.45;;;0.68;;
27303;SDS011;14791;52.392;13.092;2022-09-12T10:54:11;0.90;;;0.90;;
27303;SDS011;14791;52.392;13.092;2022-09-12T10:56:47;0.50;;;0.50;;
27303;SDS011;14791;52.392;13.092;2022-09-12T11:02:24;2.15;;;2.15;;
27303;SDS011;14791;52.392;13.092;2022-09-12T11:14:12;0.72;;;0.72;;
27303;SDS011;14791;52.392;13.092;2022-09-12T11:22:02;2.83;;;0.82;;
27303;SDS011;14791;52.392;13.092;2022-09-12T11:24:36;0.75;;;0.75;;
27303;SDS011;14791;52.392;13.092;2022-09-12T11:27:27;0.72;;;0.72;;
27303;SDS011;14791;52.392;13.092;2022-09-12T11:30:01;1.00;;;0.50;;
27303;SDS011;14791;52.392;13.092;2022-09-12T11:32:42;0.50;;;0.50;;
27303;SDS011;14791;52.392;13.092;2022-09-12T11:35:29;0.85;;;0.85;;
27303;SDS011;14791;52.392;13.092;2022-09-12T11:38:04;1.15;;;1.05;;
27303;SDS011;14791;52.392;13.092;2022-09-12T11:43:36;0.70;;;0.70;;
27303;SDS011;14791;52.392;13.092;2022-09-12T11:51:37;0.60;;;0.60;;
27303;SDS011;14791;52.392;13.092;2022-09-12T11:57:03;0.50;;;0.50;;
27303;SDS011;14791;52.392;13.092;2022-09-12T12:02:35;0.40;;;0.40;;
27303;SDS011;14791;52.392;13.092;2022-09-12T12:07:48;0.90;;;0.90;;
27303;SDS011;14791;52.392;13.092;2022-09-12T12:10:26;0.60;;;0.60;;
27303;SDS011;14791;52.392;13.092;2022-09-12T12:13:04;0.50;;;0.50;;
27303;SDS011;14791;52.392;13.092;2022-09-12T12:15:59;0.68;;;0.68;;
27303;SDS011;14791;52.392;13.092;2022-09-12T12:18:31;0.65;;;0.60;;
27303;SDS011;14791;52.392;13.092;2022-09-12T12:21:19;0.70;;;0.70;;
27303;SDS011;14791;52.392;13.092;2022-09-12T12:39:58;0.50;;;0.50;;
27303;SDS011;14791;52.392;13.092;2022-09-12T12:47:56;0.60;;;0.60;;
27303;SDS011;14791;52.392;13.092;2022-09-12T12:50:30;1.27;;;0.85;;
27303;SDS011;14791;52.392;13.092;2022-09-12T12:55:36;0.42;;;0.42;;
27303;SDS011;14791;52.392;13.092;2022-09-12T12:58:30;0.50;;;0.50;;
27303;SDS011;14791;52.392;13.092;2022-09-12T13:03:51;0.68;;;0.68;;
27303;SDS011;14791;52.392;13.092;2022-09-12T13:06:37;0.68;;;0.68;;
27303;SDS011;14791;52.392;13.092;2022-09-12T13:09:21;1.37;;;0.82;;
27303;SDS011;14791;52.392;13.092;2022-09-12T13:12:05;0.90;;;0.90;;
27303;SDS011;14791;52.392;13.092;2022-09-12T13:14:46;0.88;;;0.88;;
27303;SDS011;14791;52.392;13.092;2022-09-12T13:19:48;0.65;;;0.65;;
27303;SDS011;14791;52.392;13.092;2022-09-12T13:22:21;0.50;;;0.50;;
27303;SDS011;14791;52.392;13.092;2022-09-12T13:24:51;0.57;;;0.57;;
27303;SDS011;14791;52.392;13.092;2022-09-12T13:27:21;0.60;;;0.60;;
27303;SDS011;14791;52.392;13.092;2022-09-12T13:32:40;0.68;;;0.68;;
27303;SDS011;14791;52.392;13.092;2022-09-12T13:35:30;0.80;;;0.80;;
27303;SDS011;14791;52.392;13.092;2022-09-12T13:38:13;0.60;;;0.60;;
27303;SDS011;14791;52.392;13.092;2022-09-12T13:40:49;0.98;;;0.98;;
27303;SDS011;14791;52.392;13.092;2022-09-12T13:43:16;0.50;;;0.50;;
27303;SDS011;14791;52.392;13.092;2022-09-12T13:45:48;0.68;;;0.68;;
27303;SDS011;14791;52.392;13.092;2022-09-12T13:48:19;0.47;;;0.47;;
27303;SDS011;14791;52.392;13.092;2022-09-12T13:50:52;0.60;;;0.60;;
27303;SDS011;14791;52.392;13.092;2022-09-12T13:53:24;0.75;;;0.75;;
27303;SDS011;14791;52.392;13.092;2022-09-12T13:55:56;1.20;;;0.70;;
27303;SDS011;14791;52.392;13.092;2022-09-12T13:58:27;1.60;;;0.90;;
27303;SDS011;14791;52.392;13.092;2022-09-12T14:01:00;0.80;;;0.80;;
27303;SDS011;14791;52.392;13.092;2022-09-12T14:03:47;0.70;;;0.70;;
27303;SDS011;14791;52.392;13.092;2022-09-12T14:06:45;0.80;;;0.80;;
27303;SDS011;14791;52.392;13.092;2022-09-12T14:09:29;0.60;;;0.60;;
27303;SDS011;14791;52.392;13.092;2022-09-12T14:11:59;0.70;;;0.70;;
27303;SDS011;14791;52.392;13.092;2022-09-12T14:14:32;0.70;;;0.70;;
27303;SDS011;14791;52.392;13.092;2022-09-12T14:19:48;0.80;;;0.80;;
27303;SDS011;14791;52.392;13.092;2022-09-12T14:22:18;0.70;;;0.70;;
27303;SDS011;14791;52.392;13.092;2022-09-12T14:24:48;0.70;;;0.70;;
27303;SDS011;14791;52.392;13.092;2022-09-12T14:27:18;0.53;;;0.53;;
27303;SDS011;14791;52.392;13.092;2022-09-12T14:29:59;0.70;;;0.70;;
27303;SDS011;14791;52.392;13.092;2022-09-12T14:32:25;0.78;;;0.78;;
27303;SDS011;14791;52.392;13.092;2022-09-12T14:37:47;0.90;;;0.90;;
27303;SDS011;14791;52.392;13.092;2022-09-12T14:40:18;0.90;;;0.90;;
27303;SDS011;14791;52.392;13.092;2022-09-12T14:42:50;0.80;;;0.80;;
27303;SDS011;14791;52.392;13.092;2022-09-12T14:45:23;0.90;;;0.70;;
27303;SDS011;14791;52.392;13.092;2022-09-12T14:47:54;0.85;;;0.85;;
27303;SDS011;14791;52.392;13.092;2022-09-12T14:50:25;0.80;;;0.80;;
27303;SDS011;14791;52.392;13.092;2022-09-12T14:53:06;0.90;;;0.90;;
27303;SDS011;14791;52.392;13.092;2022-09-12T14:55:39;0.60;;;0.60;;
27303;SDS011;14791;52.392;13.092;2022-09-12T14:58:08;0.80;;;0.80;;
27303;SDS011;14791;52.392;13.092;2022-09-12T15:03:29;0.68;;;0.68;;
27303;SDS011;14791;52.392;13.092;2022-09-12T15:06:03;0.70;;;0.70;;
27303;SDS011;14791;52.392;13.092;2022-09-12T15:08:36;0.70;;;0.70;;
27303;SDS011;14791;52.392;13.092;2022-09-12T15:11:05;0.72;;;0.72;;
27303;SDS011;14791;52.392;13.092;2022-09-12T15:13:37;0.82;;;0.82;;
27303;SDS011;14791;52.392;13.092;2022-09-12T15:16:08;0.68;;;0.68;;
27303;SDS011;14791;52.392;13.092;2022-09-12T15:18:38;0.90;;;0.90;;
27303;SDS011;14791;52.392;13.092;2022-09-12T15:21:09;0.88;;;0.88;;
27303;SDS011;14791;52.392;13.092;2022-09-12T15:23:43;0.70;;;0.70;;
27303;SDS011;14791;52.392;13.092;2022-09-12T15:26:17;0.82;;;0.82;;
27303;SDS011;14791;52.392;13.092;2022-09-12T15:28:48;0.98;;;0.98;;
27303;SDS011;14791;52.392;13.092;2022-09-12T15:31:25;0.70;;;0.70;;
27303;SDS011;14791;52.392;13.092;2022-09-12T15:33:56;0.40;;;0.40;;
27303;SDS011;14791;52.392;13.092;2022-09-12T15:36:27;0.60;;;0.60;;
27303;SDS011;14791;52.392;13.092;2022-09-12T15:38:56;1.02;;;1.02;;
27303;SDS011;14791;52.392;13.092;2022-09-12T15:41:28;1.20;;;1.20;;
27303;SDS011;14791;52.392;13.092;2022-09-12T15:43:57;0.93;;;0.93;;
27303;SDS011;14791;52.392;13.092;2022-09-12T15:46:27;1.00;;;1.00;;
27303;SDS011;14791;52.392;13.092;2022-09-12T15:48:56;0.93;;;0.93;;
27303;SDS011;14791;52.392;13.092;2022-09-12T15:51:24;1.32;;;1.32;;
27303;SDS011;14791;52.392;13.092;2022-09-12T15:53:53;0.90;;;0.90;;
27303;SDS011;14791;52.392;13.092;2022-09-12T15:56:22;0.60;;;0.60;;
27303;SDS011;14791;52.392;13.092;2022-09-12T15:58:51;0.98;;;0.98;;
27303;SDS011;14791;52.392;13.092;2022-09-12T16:01:20;0.90;;;0.90;;
27303;SDS011;14791;52.392;13.092;2022-09-12T16:03:49;1.72;;;1.65;;
27303;SDS011;14791;52.392;13.092;2022-09-12T16:06:18;1.20;;;1.20;;
27303;SDS011;14791;52.392;13.092;2022-09-12T16:08:48;1.10;;;0.98;;
27303;SDS011;14791;52.392;13.092;2022-09-12T16:11:21;1.47;;;0.90;;
27303;SDS011;14791;52.392;13.092;2022-09-12T16:13:52;1.95;;;0.98;;
27303;SDS011;14791;52.392;13.092;2022-09-12T16:16:22;1.22;;;1.22;;
27303;SDS011;14791;52.392;13.092;2022-09-12T16:18:51;0.95;;;0.95;;
27303;SDS011;14791;52.392;13.092;2022-09-12T16:21:20;1.15;;;1.15;;
27303;SDS011;14791;52.392;13.092;2022-09-12T16:23:49;1.77;;;1.67;;
27303;SDS011;14791;52.392;13.092;2022-09-12T16:26:18;1.62;;;1.50;;
27303;SDS011;14791;52.392;13.092;2022-09-12T16:28:47;1.50;;;1.50;;
27303;SDS011;14791;52.392;13.092;2022-09-12T16:31:24;1.50;;;1.45;;
27303;SDS011;14791;52.392;13.092;2022-09-12T16:33:53;1.15;;;1.15;;
27303;SDS011;14791;52.392;13.092;2022-09-12T16:36:22;1.00;;;1.00;;
27303;SDS011;14791;52.392;13.092;2022-09-12T16:38:51;1.45;;;1.45;;
27303;SDS011;14791;52.392;13.092;2022-09-12T16:41:22;1.82;;;1.60;;
27303;SDS011;14791;52.392;13.092;2022-09-12T16:43:52;1.42;;;1.42;;
27303;SDS011;14791;52.392;13.092;2022-09-12T16:46:23;0.90;;;0.90;;
27303;SDS011;14791;52.392;13.092;2022-09-12T16:48:56;0.82;;;0.80;;
27303;SDS011;14791;52.392;13.092;2022-09-12T16:51:30;1.20;;;1.20;;
27303;SDS011;14791;52.392;13.092;2022-09-12T16:54:03;0.98;;;0.98;;
27303;SDS011;14791;52.392;13.092;2022-09-12T16:56:32;1.07;;;1.07;;
27303;SDS011;14791;52.392;13.092;2022-09-12T16:59:01;1.07;;;1.07;;
27303;SDS011;14791;52.392;13.092;2022-09-12T17:01:31;0.95;;;0.95;;
27303;SDS011;14791;52.392;13.092;2022-09-12T17:04:00;0.90;;;0.90;;
27303;SDS011;14791;52.392;13.092;2022-09-12T17:06:30;1.50;;;1.50;;
27303;SDS011;14791;52.392;13.092;2022-09-12T17:09:01;1.25;;;1.25;;
27303;SDS011;14791;52.392;13.092;2022-09-12T17:11:32;1.10;;;1.10;;
27303;SDS011;14791;52.392;13.092;2022-09-12T17:14:03;1.50;;;1.50;;
27303;SDS011;14791;52.392;13.092;2022-09-12T17:16:39;1.50;;;1.40;;
27303;SDS011;14791;52.392;13.092;2022-09-12T17:19:17;1.80;;;1.30;;
27303;SDS011;14791;52.392;13.092;2022-09-12T17:21:48;1.50;;;1.50;;
27303;SDS011;14791;52.392;13.092;2022-09-12T17:24:17;1.95;;;1.67;;
27303;SDS011;14791;52.392;13.092;2022-09-12T17:26:47;1.30;;;1.30;;
27303;SDS011;14791;52.392;13.092;2022-09-12T17:29:17;1.82;;;1.77;;
27303;SDS011;14791;52.392;13.092;2022-09-12T17:31:46;1.67;;;1.67;;
27303;SDS011;14791;52.392;13.092;2022-09-12T17:34:15;1.90;;;1.90;;